sensor_id;sensor_type;location;lat;lon;timestamp;temperature;humidity
8862;DHT22;4799;50.996;4.754;2022-08-01T00:01:57;21.70;99.90
8862;DHT22;4799;50.996;4.754;2022-08-01T00:04:23;21.70;99.90
8862;DHT22;4799;50.996;4.754;2022-08-01T00:06:49;21.60;99.90
8862;DHT22;4799;50.996;4.754;2022-08-01T00:09:14;21.60;99.90
8862;DHT22;4799;50.996;4.754;2022-08-01T00:11:40;21.50;99.90
8862;DHT22;4799;50.996;4.754;2022-08-01T00:14:07;21.50;99.90
8862;DHT22;4799;50.996;4.754;2022-08-01T00:16:35;21.50;99.90
8862;DHT22;4799;50.996;4.754;2022-08-01T00:19:01;21.40;99.90
8862;DHT22;4799;50.996;4.754;2022-08-01T00:21:26;21.40;99.90
8862;DHT22;4799;50.996;4.754;2022-08-01T00:23:52;21.30;99.90
8862;DHT22;4799;50.996;4.754;2022-08-01T00:26:18;21.30;99.90
8862;DHT22;4799;50.996;4.754;2022-08-01T00:28:43;21.40;99.90
8862;DHT22;4799;50.996;4.754;2022-08-01T00:31:09;21.30;99.90
8862;DHT22;4799;50.996;4.754;2022-08-01T00:33:35;21.30;99.90
8862;DHT22;4799;50.996;4.754;2022-08-01T00:36:01;21.30;99.90
8862;DHT22;4799;50.996;4.754;2022-08-01T00:38:26;21.30;99.90
8862;DHT22;4799;50.996;4.754;2022-08-01T00:40:52;21.30;99.90
8862;DHT22;4799;50.996;4.754;2022-08-01T00:43:18;21.30;99.90
8862;DHT22;4799;50.996;4.754;2022-08-01T00:45:44;21.20;99.90
8862;DHT22;4799;50.996;4.754;2022-08-01T00:48:09;21.20;99.90
8862;DHT22;4799;50.996;4.754;2022-08-01T00:50:35;21.10;99.90
8862;DHT22;4799;50.996;4.754;2022-08-01T00:53:02;21.20;99.90
8862;DHT22;4799;50.996;4.754;2022-08-01T00:55:28;21.10;99.90
8862;DHT22;4799;50.996;4.754;2022-08-01T00:57:54;21.10;99.90
8862;DHT22;4799;50.996;4.754;2022-08-01T01:00:21;21.10;99.90
8862;DHT22;4799;50.996;4.754;2022-08-01T01:02:47;21.00;99.90
8862;DHT22;4799;50.996;4.754;2022-08-01T01:05:13;21.00;99.90
8862;DHT22;4799;50.996;4.754;2022-08-01T01:08:04;21.00;99.90
8862;DHT22;4799;50.996;4.754;2022-08-01T01:13:09;21.00;99.90
8862;DHT22;4799;50.996;4.754;2022-08-01T01:15:46;21.00;99.90
8862;DHT22;4799;50.996;4.754;2022-08-01T01:18:33;21.00;99.90
8862;DHT22;4799;50.996;4.754;2022-08-01T01:27:10;21.00;99.90
8862;DHT22;4799;50.996;4.754;2022-08-01T01:29:45;20.90;99.90
8862;DHT22;4799;50.996;4.754;2022-08-01T01:32:32;20.90;99.90
8862;DHT22;4799;50.996;4.754;2022-08-01T01:35:05;20.90;99.90
8862;DHT22;4799;50.996;4.754;2022-08-01T01:37:33;20.90;99.90
8862;DHT22;4799;50.996;4.754;2022-08-01T01:40:00;20.90;99.90
8862;DHT22;4799;50.996;4.754;2022-08-01T01:42:28;21.00;99.90
8862;DHT22;4799;50.996;4.754;2022-08-01T01:44:56;21.00;99.90
8862;DHT22;4799;50.996;4.754;2022-08-01T01:47:23;21.00;99.90
8862;DHT22;4799;50.996;4.754;2022-08-01T01:49:51;21.00;99.90
8862;DHT22;4799;50.996;4.754;2022-08-01T01:52:18;21.00;99.90
8862;DHT22;4799;50.996;4.754;2022-08-01T01:54:47;21.00;99.90
8862;DHT22;4799;50.996;4.754;2022-08-01T01:57:14;21.00;99.90
8862;DHT22;4799;50.996;4.754;2022-08-01T01:59:42;21.00;99.90
8862;DHT22;4799;50.996;4.754;2022-08-01T02:02:09;21.00;99.90
8862;DHT22;4799;50.996;4.754;2022-08-01T02:04:39;21.00;99.90
8862;DHT22;4799;50.996;4.754;2022-08-01T02:07:06;21.00;99.90
8862;DHT22;4799;50.996;4.754;2022-08-01T02:09:35;21.10;99.90
8862;DHT22;4799;50.996;4.754;2022-08-01T02:12:04;21.00;99.90
8862;DHT22;4799;50.996;4.754;2022-08-01T02:14:32;21.00;99.90
8862;DHT22;4799;50.996;4.754;2022-08-01T02:17:00;21.00;99.90
8862;DHT22;4799;50.996;4.754;2022-08-01T02:19:29;21.00;99.90
8862;DHT22;4799;50.996;4.754;2022-08-01T02:22:04;21.10;99.90
8862;DHT22;4799;50.996;4.754;2022-08-01T02:24:55;21.00;99.90
8862;DHT22;4799;50.996;4.754;2022-08-01T02:27:34;21.00;99.90
8862;DHT22;4799;50.996;4.754;2022-08-01T02:30:05;21.00;99.90
8862;DHT22;4799;50.996;4.754;2022-08-01T02:32:44;21.00;99.90
8862;DHT22;4799;50.996;4.754;2022-08-01T02:35:18;21.00;99.90
8862;DHT22;4799;50.996;4.754;2022-08-01T02:37:45;20.90;99.90
8862;DHT22;4799;50.996;4.754;2022-08-01T02:40:14;20.90;99.90
8862;DHT22;4799;50.996;4.754;2022-08-01T02:42:50;20.90;99.90
8862;DHT22;4799;50.996;4.754;2022-08-01T02:45:22;20.80;99.90
8862;DHT22;4799;50.996;4.754;2022-08-01T02:47:50;20.90;99.90
8862;DHT22;4799;50.996;4.754;2022-08-01T02:50:18;20.80;99.90
8862;DHT22;4799;50.996;4.754;2022-08-01T02:52:46;20.80;99.90
8862;DHT22;4799;50.996;4.754;2022-08-01T02:55:14;20.80;99.90
8862;DHT22;4799;50.996;4.754;2022-08-01T02:57:42;20.80;99.90
8862;DHT22;4799;50.996;4.754;2022-08-01T03:00:09;20.80;99.90
8862;DHT22;4799;50.996;4.754;2022-08-01T03:02:36;20.80;99.90
8862;DHT22;4799;50.996;4.754;2022-08-01T03:05:02;20.70;99.90
8862;DHT22;4799;50.996;4.754;2022-08-01T03:07:28;20.70;99.90
8862;DHT22;4799;50.996;4.754;2022-08-01T03:09:56;20.70;99.90
8862;DHT22;4799;50.996;4.754;2022-08-01T03:12:26;20.70;99.90
8862;DHT22;4799;50.996;4.754;2022-08-01T03:14:54;20.70;99.90
8862;DHT22;4799;50.996;4.754;2022-08-01T03:17:24;20.70;99.90
8862;DHT22;4799;50.996;4.754;2022-08-01T03:19:51;20.70;99.90
8862;DHT22;4799;50.996;4.754;2022-08-01T03:22:18;20.60;99.90
8862;DHT22;4799;50.996;4.754;2022-08-01T03:24:51;20.60;99.90
8862;DHT22;4799;50.996;4.754;2022-08-01T03:27:19;20.60;99.90
8862;DHT22;4799;50.996;4.754;2022-08-01T03:29:47;20.60;99.90
8862;DHT22;4799;50.996;4.754;2022-08-01T03:32:14;20.50;99.90
8862;DHT22;4799;50.996;4.754;2022-08-01T03:34:41;20.50;99.90
8862;DHT22;4799;50.996;4.754;2022-08-01T03:37:36;20.40;99.90
8862;DHT22;4799;50.996;4.754;2022-08-01T03:42:48;20.30;99.90
8862;DHT22;4799;50.996;4.754;2022-08-01T03:45:25;20.20;99.90
8862;DHT22;4799;50.996;4.754;2022-08-01T03:47:59;20.20;99.90
8862;DHT22;4799;50.996;4.754;2022-08-01T03:50:25;20.10;99.90
8862;DHT22;4799;50.996;4.754;2022-08-01T03:52:54;20.10;99.90
8862;DHT22;4799;50.996;4.754;2022-08-01T03:55:21;20.00;99.90
8862;DHT22;4799;50.996;4.754;2022-08-01T03:57:48;20.00;99.90
8862;DHT22;4799;50.996;4.754;2022-08-01T04:00:14;20.00;99.90
8862;DHT22;4799;50.996;4.754;2022-08-01T04:02:46;20.00;99.90
8862;DHT22;4799;50.996;4.754;2022-08-01T04:05:13;20.00;99.90
8862;DHT22;4799;50.996;4.754;2022-08-01T04:07:38;19.90;99.90
8862;DHT22;4799;50.996;4.754;2022-08-01T04:10:05;19.90;99.90
8862;DHT22;4799;50.996;4.754;2022-08-01T04:12:32;19.90;99.90
8862;DHT22;4799;50.996;4.754;2022-08-01T04:14:58;19.90;99.90
8862;DHT22;4799;50.996;4.754;2022-08-01T04:17:24;19.80;99.90
8862;DHT22;4799;50.996;4.754;2022-08-01T04:19:50;19.80;99.90
8862;DHT22;4799;50.996;4.754;2022-08-01T04:22:16;19.80;99.90
8862;DHT22;4799;50.996;4.754;2022-08-01T04:24:47;19.80;99.90
8862;DHT22;4799;50.996;4.754;2022-08-01T04:27:19;19.80;99.90
8862;DHT22;4799;50.996;4.754;2022-08-01T04:29:46;19.80;99.90
8862;DHT22;4799;50.996;4.754;2022-08-01T04:32:15;19.80;99.90
8862;DHT22;4799;50.996;4.754;2022-08-01T04:34:44;19.90;99.90
8862;DHT22;4799;50.996;4.754;2022-08-01T04:37:12;19.80;99.90
8862;DHT22;4799;50.996;4.754;2022-08-01T04:39:41;19.90;99.90
8862;DHT22;4799;50.996;4.754;2022-08-01T04:42:08;19.90;99.90
8862;DHT22;4799;50.996;4.754;2022-08-01T04:44:36;19.90;99.90
8862;DHT22;4799;50.996;4.754;2022-08-01T04:47:03;19.90;99.90
8862;DHT22;4799;50.996;4.754;2022-08-01T04:49:34;19.90;99.90
8862;DHT22;4799;50.996;4.754;2022-08-01T04:52:00;19.90;99.90
8862;DHT22;4799;50.996;4.754;2022-08-01T04:54:30;20.00;99.90
8862;DHT22;4799;50.996;4.754;2022-08-01T04:57:00;20.00;99.90
8862;DHT22;4799;50.996;4.754;2022-08-01T04:59:26;20.00;99.90
8862;DHT22;4799;50.996;4.754;2022-08-01T05:02:16;20.00;99.90
8862;DHT22;4799;50.996;4.754;2022-08-01T05:04:42;20.00;99.90
8862;DHT22;4799;50.996;4.754;2022-08-01T05:07:09;20.00;99.90
8862;DHT22;4799;50.996;4.754;2022-08-01T05:09:36;20.10;99.90
8862;DHT22;4799;50.996;4.754;2022-08-01T05:12:03;20.10;99.90
8862;DHT22;4799;50.996;4.754;2022-08-01T05:14:29;20.10;99.90
8862;DHT22;4799;50.996;4.754;2022-08-01T05:16:58;20.10;99.90
8862;DHT22;4799;50.996;4.754;2022-08-01T05:19:24;20.10;99.90
8862;DHT22;4799;50.996;4.754;2022-08-01T05:21:50;20.20;99.90
8862;DHT22;4799;50.996;4.754;2022-08-01T05:24:16;20.10;99.90
8862;DHT22;4799;50.996;4.754;2022-08-01T05:26:41;20.10;99.90
8862;DHT22;4799;50.996;4.754;2022-08-01T05:29:07;20.20;99.90
8862;DHT22;4799;50.996;4.754;2022-08-01T05:31:33;20.20;99.90
8862;DHT22;4799;50.996;4.754;2022-08-01T05:34:03;20.20;99.90
8862;DHT22;4799;50.996;4.754;2022-08-01T05:36:29;20.30;99.90
8862;DHT22;4799;50.996;4.754;2022-08-01T05:38:55;20.30;99.90
8862;DHT22;4799;50.996;4.754;2022-08-01T05:41:21;20.40;99.90
8862;DHT22;4799;50.996;4.754;2022-08-01T05:43:47;20.40;99.90
8862;DHT22;4799;50.996;4.754;2022-08-01T05:46:12;20.40;99.90
8862;DHT22;4799;50.996;4.754;2022-08-01T05:48:38;20.50;99.90
8862;DHT22;4799;50.996;4.754;2022-08-01T05:51:04;20.60;99.90
8862;DHT22;4799;50.996;4.754;2022-08-01T05:53:30;20.60;99.90
8862;DHT22;4799;50.996;4.754;2022-08-01T05:55:56;20.70;99.90
8862;DHT22;4799;50.996;4.754;2022-08-01T05:58:22;20.80;99.90
8862;DHT22;4799;50.996;4.754;2022-08-01T06:00:47;21.00;99.90
8862;DHT22;4799;50.996;4.754;2022-08-01T06:03:13;21.10;99.90
8862;DHT22;4799;50.996;4.754;2022-08-01T06:05:40;21.20;99.90
8862;DHT22;4799;50.996;4.754;2022-08-01T06:08:06;21.30;99.90
8862;DHT22;4799;50.996;4.754;2022-08-01T06:10:31;21.30;99.90
8862;DHT22;4799;50.996;4.754;2022-08-01T06:12:57;21.40;99.90
8862;DHT22;4799;50.996;4.754;2022-08-01T06:15:23;21.30;99.90
8862;DHT22;4799;50.996;4.754;2022-08-01T06:17:49;21.40;99.90
8862;DHT22;4799;50.996;4.754;2022-08-01T06:20:15;21.40;99.90
8862;DHT22;4799;50.996;4.754;2022-08-01T06:22:40;21.40;99.90
8862;DHT22;4799;50.996;4.754;2022-08-01T06:25:07;21.50;99.90
8862;DHT22;4799;50.996;4.754;2022-08-01T06:27:36;21.50;99.90
8862;DHT22;4799;50.996;4.754;2022-08-01T06:30:03;21.50;99.90
8862;DHT22;4799;50.996;4.754;2022-08-01T06:32:29;21.60;99.90
8862;DHT22;4799;50.996;4.754;2022-08-01T06:34:55;21.70;99.90
8862;DHT22;4799;50.996;4.754;2022-08-01T06:37:21;21.90;99.90
8862;DHT22;4799;50.996;4.754;2022-08-01T06:39:47;22.00;99.90
8862;DHT22;4799;50.996;4.754;2022-08-01T06:42:13;22.10;99.90
8862;DHT22;4799;50.996;4.754;2022-08-01T06:44:40;22.30;99.90
8862;DHT22;4799;50.996;4.754;2022-08-01T06:47:06;22.50;99.90
8862;DHT22;4799;50.996;4.754;2022-08-01T06:49:31;22.60;99.90
8862;DHT22;4799;50.996;4.754;2022-08-01T06:51:57;22.80;99.90
8862;DHT22;4799;50.996;4.754;2022-08-01T06:54:23;23.00;99.90
8862;DHT22;4799;50.996;4.754;2022-08-01T06:56:49;23.00;99.90
8862;DHT22;4799;50.996;4.754;2022-08-01T06:59:14;23.00;99.90
8862;DHT22;4799;50.996;4.754;2022-08-01T07:01:40;23.10;99.90
8862;DHT22;4799;50.996;4.754;2022-08-01T07:04:06;23.20;99.90
8862;DHT22;4799;50.996;4.754;2022-08-01T07:06:32;23.30;99.90
8862;DHT22;4799;50.996;4.754;2022-08-01T07:08:58;23.40;99.90
8862;DHT22;4799;50.996;4.754;2022-08-01T07:11:25;23.50;99.90
8862;DHT22;4799;50.996;4.754;2022-08-01T07:13:51;23.50;99.90
8862;DHT22;4799;50.996;4.754;2022-08-01T07:16:17;23.60;99.90
8862;DHT22;4799;50.996;4.754;2022-08-01T07:18:43;23.50;99.90
8862;DHT22;4799;50.996;4.754;2022-08-01T07:21:09;23.40;99.90
8862;DHT22;4799;50.996;4.754;2022-08-01T07:23:35;23.30;99.90
8862;DHT22;4799;50.996;4.754;2022-08-01T07:26:02;23.30;99.90
8862;DHT22;4799;50.996;4.754;2022-08-01T07:28:28;23.40;99.90
8862;DHT22;4799;50.996;4.754;2022-08-01T07:30:54;23.30;99.90
8862;DHT22;4799;50.996;4.754;2022-08-01T07:33:20;23.40;99.90
8862;DHT22;4799;50.996;4.754;2022-08-01T07:35:45;23.50;99.90
8862;DHT22;4799;50.996;4.754;2022-08-01T07:38:11;23.60;99.90
8862;DHT22;4799;50.996;4.754;2022-08-01T07:40:37;23.60;99.90
8862;DHT22;4799;50.996;4.754;2022-08-01T07:43:02;23.60;99.90
8862;DHT22;4799;50.996;4.754;2022-08-01T07:45:28;23.60;99.90
8862;DHT22;4799;50.996;4.754;2022-08-01T07:47:55;23.70;99.90
8862;DHT22;4799;50.996;4.754;2022-08-01T07:50:20;23.80;99.90
8862;DHT22;4799;50.996;4.754;2022-08-01T07:52:46;23.80;99.90
8862;DHT22;4799;50.996;4.754;2022-08-01T07:55:12;24.00;99.90
8862;DHT22;4799;50.996;4.754;2022-08-01T07:57:38;24.10;99.90
8862;DHT22;4799;50.996;4.754;2022-08-01T08:00:05;24.30;99.90
8862;DHT22;4799;50.996;4.754;2022-08-01T08:02:32;24.40;99.90
8862;DHT22;4799;50.996;4.754;2022-08-01T08:04:57;24.50;99.90
8862;DHT22;4799;50.996;4.754;2022-08-01T08:07:23;24.50;99.90
8862;DHT22;4799;50.996;4.754;2022-08-01T08:09:49;24.40;99.90
8862;DHT22;4799;50.996;4.754;2022-08-01T08:12:15;24.50;99.90
8862;DHT22;4799;50.996;4.754;2022-08-01T08:14:40;24.50;99.90
8862;DHT22;4799;50.996;4.754;2022-08-01T08:17:06;24.60;99.90
8862;DHT22;4799;50.996;4.754;2022-08-01T08:19:32;24.60;99.90
8862;DHT22;4799;50.996;4.754;2022-08-01T08:22:02;24.60;99.90
8862;DHT22;4799;50.996;4.754;2022-08-01T08:24:27;24.60;99.90
8862;DHT22;4799;50.996;4.754;2022-08-01T08:26:55;24.60;99.90
8862;DHT22;4799;50.996;4.754;2022-08-01T08:29:22;24.80;99.90
8862;DHT22;4799;50.996;4.754;2022-08-01T08:31:48;25.00;99.90
8862;DHT22;4799;50.996;4.754;2022-08-01T08:34:15;25.30;99.90
8862;DHT22;4799;50.996;4.754;2022-08-01T08:36:41;25.40;99.90
8862;DHT22;4799;50.996;4.754;2022-08-01T08:39:07;25.40;99.90
8862;DHT22;4799;50.996;4.754;2022-08-01T08:41:33;25.40;99.90
8862;DHT22;4799;50.996;4.754;2022-08-01T08:44:04;25.10;99.90
8862;DHT22;4799;50.996;4.754;2022-08-01T08:46:31;25.00;99.90
8862;DHT22;4799;50.996;4.754;2022-08-01T08:49:02;25.00;99.90
8862;DHT22;4799;50.996;4.754;2022-08-01T08:51:31;25.00;99.90
8862;DHT22;4799;50.996;4.754;2022-08-01T08:54:00;25.10;99.90
8862;DHT22;4799;50.996;4.754;2022-08-01T08:56:28;25.20;99.90
8862;DHT22;4799;50.996;4.754;2022-08-01T08:58:55;25.30;99.40
8862;DHT22;4799;50.996;4.754;2022-08-01T09:01:22;25.30;99.20
8862;DHT22;4799;50.996;4.754;2022-08-01T09:03:48;25.40;98.90
8862;DHT22;4799;50.996;4.754;2022-08-01T09:06:14;25.30;99.20
8862;DHT22;4799;50.996;4.754;2022-08-01T09:08:40;25.30;98.40
8862;DHT22;4799;50.996;4.754;2022-08-01T09:11:06;25.30;98.40
8862;DHT22;4799;50.996;4.754;2022-08-01T09:13:31;25.30;98.60
8862;DHT22;4799;50.996;4.754;2022-08-01T09:15:57;25.20;98.60
8862;DHT22;4799;50.996;4.754;2022-08-01T09:18:28;25.10;99.00
8862;DHT22;4799;50.996;4.754;2022-08-01T09:21:21;25.10;99.30
8862;DHT22;4799;50.996;4.754;2022-08-01T09:23:54;25.00;99.00
8862;DHT22;4799;50.996;4.754;2022-08-01T09:26:28;24.90;99.10
8862;DHT22;4799;50.996;4.754;2022-08-01T09:28:54;25.00;98.20
8862;DHT22;4799;50.996;4.754;2022-08-01T09:31:20;25.20;97.60
8862;DHT22;4799;50.996;4.754;2022-08-01T09:33:58;25.40;96.10
8862;DHT22;4799;50.996;4.754;2022-08-01T09:36:27;25.50;94.40
8862;DHT22;4799;50.996;4.754;2022-08-01T09:38:54;25.80;93.90
8862;DHT22;4799;50.996;4.754;2022-08-01T09:41:30;26.00;93.00
8862;DHT22;4799;50.996;4.754;2022-08-01T09:43:59;26.00;93.10
8862;DHT22;4799;50.996;4.754;2022-08-01T09:46:25;26.10;93.10
8862;DHT22;4799;50.996;4.754;2022-08-01T09:49:06;26.00;93.20
8862;DHT22;4799;50.996;4.754;2022-08-01T09:51:34;26.00;92.60
8862;DHT22;4799;50.996;4.754;2022-08-01T09:54:01;25.90;92.70
8862;DHT22;4799;50.996;4.754;2022-08-01T09:56:39;26.00;93.20
8862;DHT22;4799;50.996;4.754;2022-08-01T09:59:07;26.20;92.60
8862;DHT22;4799;50.996;4.754;2022-08-01T10:01:44;26.30;92.00
8862;DHT22;4799;50.996;4.754;2022-08-01T10:04:16;26.60;91.10
8862;DHT22;4799;50.996;4.754;2022-08-01T10:06:45;26.70;90.60
8862;DHT22;4799;50.996;4.754;2022-08-01T10:09:13;26.60;89.80
8862;DHT22;4799;50.996;4.754;2022-08-01T10:11:41;26.40;90.00
8862;DHT22;4799;50.996;4.754;2022-08-01T10:14:08;26.20;89.60
8862;DHT22;4799;50.996;4.754;2022-08-01T10:16:35;26.20;90.20
8862;DHT22;4799;50.996;4.754;2022-08-01T10:19:06;26.20;90.80
8862;DHT22;4799;50.996;4.754;2022-08-01T10:21:33;26.20;90.80
8862;DHT22;4799;50.996;4.754;2022-08-01T10:24:01;26.30;90.50
8862;DHT22;4799;50.996;4.754;2022-08-01T10:26:29;26.50;90.20
8862;DHT22;4799;50.996;4.754;2022-08-01T10:28:57;26.50;90.00
8862;DHT22;4799;50.996;4.754;2022-08-01T10:31:23;26.50;88.90
8862;DHT22;4799;50.996;4.754;2022-08-01T10:33:50;26.50;89.00
8862;DHT22;4799;50.996;4.754;2022-08-01T10:36:22;26.60;89.50
8862;DHT22;4799;50.996;4.754;2022-08-01T10:38:55;26.80;89.10
8862;DHT22;4799;50.996;4.754;2022-08-01T10:41:22;26.90;87.80
8862;DHT22;4799;50.996;4.754;2022-08-01T10:43:49;26.90;87.30
8862;DHT22;4799;50.996;4.754;2022-08-01T10:46:19;26.90;86.20
8862;DHT22;4799;50.996;4.754;2022-08-01T10:49:02;27.10;86.80
8862;DHT22;4799;50.996;4.754;2022-08-01T10:51:30;27.20;86.30
8862;DHT22;4799;50.996;4.754;2022-08-01T10:53:56;27.40;86.60
8862;DHT22;4799;50.996;4.754;2022-08-01T10:56:23;27.60;85.40
8862;DHT22;4799;50.996;4.754;2022-08-01T10:58:49;27.70;83.90
8862;DHT22;4799;50.996;4.754;2022-08-01T11:04:05;28.00;81.60
8862;DHT22;4799;50.996;4.754;2022-08-01T11:14:31;28.60;77.50
8862;DHT22;4799;50.996;4.754;2022-08-01T11:22:30;29.10;72.50
8862;DHT22;4799;50.996;4.754;2022-08-01T11:24:57;29.30;72.20
8862;DHT22;4799;50.996;4.754;2022-08-01T11:27:26;29.30;70.10
8862;DHT22;4799;50.996;4.754;2022-08-01T11:30:21;29.20;69.90
8862;DHT22;4799;50.996;4.754;2022-08-01T11:32:55;29.20;69.10
8862;DHT22;4799;50.996;4.754;2022-08-01T11:35:24;29.20;71.10
8862;DHT22;4799;50.996;4.754;2022-08-01T11:37:53;29.30;71.30
8862;DHT22;4799;50.996;4.754;2022-08-01T11:42:49;29.00;67.90
8862;DHT22;4799;50.996;4.754;2022-08-01T11:45:15;29.00;67.90
8862;DHT22;4799;50.996;4.754;2022-08-01T11:47:47;28.90;68.60
8862;DHT22;4799;50.996;4.754;2022-08-01T11:50:33;29.00;68.90
8862;DHT22;4799;50.996;4.754;2022-08-01T11:53:07;29.10;68.40
8862;DHT22;4799;50.996;4.754;2022-08-01T11:55:33;29.00;67.90
8862;DHT22;4799;50.996;4.754;2022-08-01T11:58:05;29.20;68.10
8862;DHT22;4799;50.996;4.754;2022-08-01T12:00:32;29.30;67.70
8862;DHT22;4799;50.996;4.754;2022-08-01T12:03:00;29.50;66.40
8862;DHT22;4799;50.996;4.754;2022-08-01T12:05:28;29.40;64.00
8862;DHT22;4799;50.996;4.754;2022-08-01T12:07:55;29.50;63.40
8862;DHT22;4799;50.996;4.754;2022-08-01T12:10:24;29.60;63.90
8862;DHT22;4799;50.996;4.754;2022-08-01T12:12:55;29.90;64.10
8862;DHT22;4799;50.996;4.754;2022-08-01T12:15:24;29.90;63.80
8862;DHT22;4799;50.996;4.754;2022-08-01T12:17:59;29.80;62.30
8862;DHT22;4799;50.996;4.754;2022-08-01T12:20:31;29.80;61.20
8862;DHT22;4799;50.996;4.754;2022-08-01T12:23:01;29.70;60.00
8862;DHT22;4799;50.996;4.754;2022-08-01T12:25:27;29.90;60.10
8862;DHT22;4799;50.996;4.754;2022-08-01T12:27:53;29.90;58.90
8862;DHT22;4799;50.996;4.754;2022-08-01T12:30:21;29.90;58.20
8862;DHT22;4799;50.996;4.754;2022-08-01T12:32:51;30.00;57.70
8862;DHT22;4799;50.996;4.754;2022-08-01T12:35:19;30.10;57.90
8862;DHT22;4799;50.996;4.754;2022-08-01T12:37:50;30.20;57.10
8862;DHT22;4799;50.996;4.754;2022-08-01T12:42:44;30.10;54.70
8862;DHT22;4799;50.996;4.754;2022-08-01T12:45:14;30.00;55.20
8862;DHT22;4799;50.996;4.754;2022-08-01T12:47:40;30.00;54.60
8862;DHT22;4799;50.996;4.754;2022-08-01T12:50:11;30.20;54.90
8862;DHT22;4799;50.996;4.754;2022-08-01T12:52:38;30.20;54.10
8862;DHT22;4799;50.996;4.754;2022-08-01T12:55:09;30.20;54.10
8862;DHT22;4799;50.996;4.754;2022-08-01T12:57:37;30.10;53.60
8862;DHT22;4799;50.996;4.754;2022-08-01T13:00:12;30.10;54.10
8862;DHT22;4799;50.996;4.754;2022-08-01T13:02:39;30.00;55.00
8862;DHT22;4799;50.996;4.754;2022-08-01T13:05:06;30.00;54.90
8862;DHT22;4799;50.996;4.754;2022-08-01T13:07:49;30.00;55.50
8862;DHT22;4799;50.996;4.754;2022-08-01T13:10:29;30.10;56.10
8862;DHT22;4799;50.996;4.754;2022-08-01T13:12:57;30.00;54.60
8862;DHT22;4799;50.996;4.754;2022-08-01T13:15:28;29.90;53.90
8862;DHT22;4799;50.996;4.754;2022-08-01T13:17:56;29.60;53.30
8862;DHT22;4799;50.996;4.754;2022-08-01T13:20:34;29.60;54.40
8862;DHT22;4799;50.996;4.754;2022-08-01T13:23:17;29.70;54.50
8862;DHT22;4799;50.996;4.754;2022-08-01T13:25:54;29.80;53.50
8862;DHT22;4799;50.996;4.754;2022-08-01T13:28:26;29.90;53.40
8862;DHT22;4799;50.996;4.754;2022-08-01T13:33:17;30.00;54.20
8862;DHT22;4799;50.996;4.754;2022-08-01T13:35:43;30.10;54.00
8862;DHT22;4799;50.996;4.754;2022-08-01T13:38:09;30.10;54.20
8862;DHT22;4799;50.996;4.754;2022-08-01T13:40:35;30.10;53.80
8862;DHT22;4799;50.996;4.754;2022-08-01T13:43:00;30.00;53.10
8862;DHT22;4799;50.996;4.754;2022-08-01T13:45:26;30.00;53.20
8862;DHT22;4799;50.996;4.754;2022-08-01T13:47:52;29.90;52.50
8862;DHT22;4799;50.996;4.754;2022-08-01T13:50:18;29.80;53.10
8862;DHT22;4799;50.996;4.754;2022-08-01T13:52:43;29.80;53.00
8862;DHT22;4799;50.996;4.754;2022-08-01T13:55:09;29.80;53.30
8862;DHT22;4799;50.996;4.754;2022-08-01T13:57:35;29.70;53.20
8862;DHT22;4799;50.996;4.754;2022-08-01T14:00:01;29.90;53.80
8862;DHT22;4799;50.996;4.754;2022-08-01T14:02:27;30.10;53.80
8862;DHT22;4799;50.996;4.754;2022-08-01T14:04:53;30.30;52.90
8862;DHT22;4799;50.996;4.754;2022-08-01T14:07:21;30.10;52.80
8862;DHT22;4799;50.996;4.754;2022-08-01T14:09:46;30.10;52.70
8862;DHT22;4799;50.996;4.754;2022-08-01T14:12:12;30.10;52.00
8862;DHT22;4799;50.996;4.754;2022-08-01T14:14:38;30.00;51.60
8862;DHT22;4799;50.996;4.754;2022-08-01T14:17:04;30.00;51.70
8862;DHT22;4799;50.996;4.754;2022-08-01T14:19:30;29.90;51.20
8862;DHT22;4799;50.996;4.754;2022-08-01T14:21:56;29.80;51.30
8862;DHT22;4799;50.996;4.754;2022-08-01T14:24:23;29.70;51.20
8862;DHT22;4799;50.996;4.754;2022-08-01T14:26:49;29.50;50.80
8862;DHT22;4799;50.996;4.754;2022-08-01T14:29:18;29.50;51.00
8862;DHT22;4799;50.996;4.754;2022-08-01T14:31:43;29.60;51.70
8862;DHT22;4799;50.996;4.754;2022-08-01T14:34:09;29.40;52.30
8862;DHT22;4799;50.996;4.754;2022-08-01T14:36:39;29.30;53.10
8862;DHT22;4799;50.996;4.754;2022-08-01T14:39:05;29.40;53.60
8862;DHT22;4799;50.996;4.754;2022-08-01T14:41:30;29.50;53.70
8862;DHT22;4799;50.996;4.754;2022-08-01T14:43:56;29.60;53.40
8862;DHT22;4799;50.996;4.754;2022-08-01T14:46:22;29.70;53.00
8862;DHT22;4799;50.996;4.754;2022-08-01T14:48:48;29.60;53.00
8862;DHT22;4799;50.996;4.754;2022-08-01T14:51:13;29.50;52.30
8862;DHT22;4799;50.996;4.754;2022-08-01T14:53:39;29.40;51.70
8862;DHT22;4799;50.996;4.754;2022-08-01T14:56:06;29.40;51.80
8862;DHT22;4799;50.996;4.754;2022-08-01T14:58:32;29.30;52.00
8862;DHT22;4799;50.996;4.754;2022-08-01T15:00:58;29.30;51.80
8862;DHT22;4799;50.996;4.754;2022-08-01T15:03:24;29.20;51.80
8862;DHT22;4799;50.996;4.754;2022-08-01T15:05:50;29.20;52.30
8862;DHT22;4799;50.996;4.754;2022-08-01T15:08:15;29.20;52.40
8862;DHT22;4799;50.996;4.754;2022-08-01T15:10:41;29.10;52.20
8862;DHT22;4799;50.996;4.754;2022-08-01T15:13:07;29.10;52.50
8862;DHT22;4799;50.996;4.754;2022-08-01T15:15:33;29.10;52.20
8862;DHT22;4799;50.996;4.754;2022-08-01T15:17:59;29.10;52.10
8862;DHT22;4799;50.996;4.754;2022-08-01T15:20:25;29.10;51.10
8862;DHT22;4799;50.996;4.754;2022-08-01T15:22:52;29.00;50.30
8862;DHT22;4799;50.996;4.754;2022-08-01T15:25:19;29.00;50.40
8862;DHT22;4799;50.996;4.754;2022-08-01T15:27:45;28.90;50.80
8862;DHT22;4799;50.996;4.754;2022-08-01T15:30:11;28.90;50.90
8862;DHT22;4799;50.996;4.754;2022-08-01T15:32:37;28.90;50.80
8862;DHT22;4799;50.996;4.754;2022-08-01T15:35:04;28.80;51.10
8862;DHT22;4799;50.996;4.754;2022-08-01T15:37:31;28.70;51.20
8862;DHT22;4799;50.996;4.754;2022-08-01T15:39:57;28.70;51.40
8862;DHT22;4799;50.996;4.754;2022-08-01T15:42:23;28.70;51.30
8862;DHT22;4799;50.996;4.754;2022-08-01T15:44:49;28.80;51.40
8862;DHT22;4799;50.996;4.754;2022-08-01T15:47:15;29.00;51.80
8862;DHT22;4799;50.996;4.754;2022-08-01T15:49:41;28.90;52.00
8862;DHT22;4799;50.996;4.754;2022-08-01T15:52:07;29.00;51.90
8862;DHT22;4799;50.996;4.754;2022-08-01T15:54:33;28.90;52.10
8862;DHT22;4799;50.996;4.754;2022-08-01T15:56:59;28.80;52.30
8862;DHT22;4799;50.996;4.754;2022-08-01T15:59:25;28.70;52.70
8862;DHT22;4799;50.996;4.754;2022-08-01T16:01:51;28.50;52.80
8862;DHT22;4799;50.996;4.754;2022-08-01T16:04:17;28.40;52.60
8862;DHT22;4799;50.996;4.754;2022-08-01T16:06:44;28.30;52.90
8862;DHT22;4799;50.996;4.754;2022-08-01T16:09:09;28.40;53.20
8862;DHT22;4799;50.996;4.754;2022-08-01T16:11:35;28.40;53.00
8862;DHT22;4799;50.996;4.754;2022-08-01T16:14:01;28.40;52.00
8862;DHT22;4799;50.996;4.754;2022-08-01T16:16:27;28.50;52.30
8862;DHT22;4799;50.996;4.754;2022-08-01T16:18:53;28.40;53.00
8862;DHT22;4799;50.996;4.754;2022-08-01T16:21:19;28.40;53.10
8862;DHT22;4799;50.996;4.754;2022-08-01T16:23:47;28.60;53.00
8862;DHT22;4799;50.996;4.754;2022-08-01T16:26:14;29.00;52.80
8862;DHT22;4799;50.996;4.754;2022-08-01T16:28:40;29.40;52.40
8862;DHT22;4799;50.996;4.754;2022-08-01T16:31:06;29.80;52.00
8862;DHT22;4799;50.996;4.754;2022-08-01T16:33:32;30.20;51.70
8862;DHT22;4799;50.996;4.754;2022-08-01T16:35:59;30.40;50.90
8862;DHT22;4799;50.996;4.754;2022-08-01T16:38:25;30.80;49.60
8862;DHT22;4799;50.996;4.754;2022-08-01T16:40:52;31.10;49.00
8862;DHT22;4799;50.996;4.754;2022-08-01T16:43:20;31.20;47.60